Airfield :
LOGIN :

Register | Disclaimer

   EN    FR    IT 

 










Legend :    VFR   Marginal VFR   IFR   Intensive IFR   Very Intensive IFR
Visi :
Ceiling :
>= 8 km
>= 3000ft
5 to 8 km
1000 to 3000 ft
1500m to 5 km
500 to 1000 ft
800 to 1500m
200 to 500 ft
< 800m
< 200 ft
Symbols :   Thunderstorms  Fog  Heavy snow  Heavy precipitations  Wind > 20 kt
SIGMETs :     Misc.  Thunderstorms  Icing  Turbulence  Mountain Waves  Volcanic Ashes






- Airport Elevation : 353 ft
- IATA code : CND


LRCK - Constanta

CURRENT METAR :
  • 281630Z 20004KT 1500 BR NSC 02/02 Q1011 NOSIG

EXPIRED METARs :
  • 281600Z VRB01KT 2000 BR NSC 03/03 Q1010 BECMG 1500 BR
  • 281530Z 27003KT 3000 BR NSC 04/04 Q1010 NOSIG
  • 281500Z 28009KT 3800 BR NSC 06/06 Q1010 NOSIG
  • 281430Z 28011KT 4000 BR NSC 07/07 Q1010 NOSIG
  • 281400Z 28011KT 3800 BR FEW008 06/06 Q1010 NOSIG

TAF AMD TAF LRCK
Valid from the 28 at 16:00 until the 29 at 12:00 UTC


281605Z 2816/2912 VRB03KT 3000 BR NSC
TEMPO 2816/2821 1500 BR BKN005
PROB30
TEMPO 2817/2820 0800 FG BKN002
BECMG 2821/2823 5000
BECMG 2901/2903 24010KT 9999 NSW
TEMPO 2908/2912 5000 -RA BR BKN015 BKN035



MET'MAP, your aeronautical weather chart ! - Copyright ORBIFLY December 2007 - Disclaimer

ORBIFLY MET'MAP TEAM :

Programming & Development : Alexandra Zaïnal
Concept & original design : Baudouin d'Aumeries
Assistance for programming : Marc-Olivier Méhu
Technical & hardware support : Manuel Goepfert

Contact : metmap@orbifly.com




SOURCES & CREDITS :

   NOAA